AFL553 ULLI-UUEE
Flight info
| Callsign | AFL553 |
|---|---|
| Flight time | N/A |
| Altitude | 37000 |
| Route | SUGIN1D SUGIN T873 NIRGI T73 NAMIN NAMIN3E |
| Aircraft | A359/H-SDE2E3GHIJ3J4J5LM1ORWXY/LB1D1 |
Departure
| Time | 2026-05-04 06:50 |
|---|---|
| Airport | Pulkovo Airport (ULLI) |
Arrival
| Time | N/A |
|---|---|
| Airport | Sheremetyevo International Airport (UUEE) |
| Time | Latitude | Longitude | Altitude | Speed | Heading |
|---|---|---|---|---|---|
| 2026-05-04 06:37 | 59.79717 | 30.26628 | 87 ft | 0 kts | 107° |
| 2026-05-04 06:42 | 59.79722 | 30.26593 | 88 ft | 4 kts | 107° |
| 2026-05-04 06:42 | 59.79729 | 30.26552 | 86 ft | 0 kts | 107° |
| 2026-05-04 06:46 | 59.79739 | 30.26569 | 87 ft | 3 kts | 26° |
| 2026-05-04 06:46 | 59.79767 | 30.26525 | 87 ft | 12 kts | 317° |
| 2026-05-04 06:46 | 59.79879 | 30.26516 | 87 ft | 23 kts | 14° |
| 2026-05-04 06:46 | 59.80047 | 30.26615 | 88 ft | 26 kts | 16° |
| 2026-05-04 06:48 | 59.80636 | 30.25261 | 82 ft | 33 kts | 287° |
| 2026-05-04 06:48 | 59.80698 | 30.24846 | 80 ft | 31 kts | 287° |
| 2026-05-04 06:49 | 59.80727 | 30.24677 | 66 ft | 8 kts | 300° |
| 2026-05-04 06:50 | 59.80203 | 30.29638 | 754 ft | 158 kts | 107° |
| 2026-05-04 06:51 | 59.79880 | 30.31691 | 1585 ft | 159 kts | 112° |
| 2026-05-04 06:51 | 59.79510 | 30.33972 | 1852 ft | 189 kts | 110° |
| 2026-05-04 06:51 | 59.79109 | 30.36692 | 2154 ft | 220 kts | 109° |
| 2026-05-04 06:51 | 59.78662 | 30.39792 | 2576 ft | 245 kts | 109° |
| 2026-05-04 06:52 | 59.78176 | 30.43124 | 3283 ft | 258 kts | 109° |
| 2026-05-04 06:52 | 59.77675 | 30.46533 | 4094 ft | 265 kts | 109° |
| 2026-05-04 06:52 | 59.77142 | 30.50105 | 4851 ft | 273 kts | 109° |
| 2026-05-04 06:52 | 59.76595 | 30.53756 | 5651 ft | 279 kts | 109° |
| 2026-05-04 06:53 | 59.76042 | 30.57491 | 6526 ft | 284 kts | 109° |
| 2026-05-04 06:53 | 59.75496 | 30.61300 | 7380 ft | 290 kts | 108° |
| 2026-05-04 06:53 | 59.74949 | 30.65142 | 8211 ft | 297 kts | 108° |
| 2026-05-04 06:53 | 59.74380 | 30.69128 | 9101 ft | 303 kts | 108° |
| 2026-05-04 06:54 | 59.73800 | 30.73184 | 9945 ft | 310 kts | 108° |
| 2026-05-04 06:54 | 59.73224 | 30.77190 | 10410 ft | 329 kts | 108° |
| 2026-05-04 06:54 | 59.72574 | 30.81697 | 10832 ft | 350 kts | 108° |
| 2026-05-04 06:54 | 59.71901 | 30.86357 | 11485 ft | 361 kts | 108° |
| 2026-05-04 06:55 | 59.71201 | 30.91196 | 12211 ft | 370 kts | 108° |
| 2026-05-04 06:55 | 59.70484 | 30.96136 | 12922 ft | 378 kts | 108° |
| 2026-05-04 06:55 | 59.69758 | 31.01125 | 13683 ft | 385 kts | 108° |
| 2026-05-04 06:55 | 59.69009 | 31.06255 | 14409 ft | 390 kts | 108° |
| 2026-05-04 06:56 | 59.68249 | 31.11451 | 15147 ft | 395 kts | 108° |
| 2026-05-04 06:57 | 59.62599 | 31.49505 | 20018 ft | 431 kts | 108° |
| 2026-05-04 06:58 | 59.61739 | 31.55220 | 20681 ft | 436 kts | 108° |
| 2026-05-04 06:58 | 59.60868 | 31.60987 | 21327 ft | 441 kts | 108° |
| 2026-05-04 06:58 | 59.59986 | 31.66812 | 21984 ft | 445 kts | 108° |
| 2026-05-04 06:58 | 59.59102 | 31.72629 | 22638 ft | 450 kts | 108° |
| 2026-05-04 06:59 | 59.58197 | 31.78563 | 23284 ft | 454 kts | 108° |
| 2026-05-04 06:59 | 59.57278 | 31.84569 | 23832 ft | 459 kts | 108° |
| 2026-05-04 06:59 | 59.56964 | 31.86615 | 24036 ft | 460 kts | 108° |